createdAt,value
2022-08-07T00:00:39.996Z,2.17
2022-08-07T00:03:08.609Z,2.40
2022-08-07T00:05:37.678Z,2.20
2022-08-07T00:08:05.198Z,2.17
2022-08-07T00:10:57.575Z,2.33
2022-08-07T00:13:26.990Z,2.20
2022-08-07T00:15:54.834Z,2.33
2022-08-07T00:18:24.446Z,2.33
2022-08-07T00:20:54.437Z,2.37
2022-08-07T00:23:21.765Z,2.70
2022-08-07T00:28:21.989Z,2.03
2022-08-07T00:30:49.471Z,2.50
2022-08-07T00:33:16.886Z,2.07
2022-08-07T00:35:49.731Z,2.20
2022-08-07T00:38:31.447Z,1.90
2022-08-07T00:41:10.066Z,2.70
2022-08-07T00:44:01.535Z,3.07
2022-08-07T00:46:29.333Z,2.50
2022-08-07T00:48:58.394Z,2.60
2022-08-07T00:51:56.703Z,2.57
2022-08-07T00:54:20.116Z,2.07
2022-08-07T00:56:49.963Z,2.23
2022-08-07T00:59:17.659Z,2.50
2022-08-07T01:01:47.968Z,2.23
2022-08-07T01:04:24.685Z,2.43
2022-08-07T01:06:52.176Z,2.77
2022-08-07T01:09:51.328Z,2.80
2022-08-07T01:12:29.636Z,2.50
2022-08-07T01:15:01.487Z,2.07
2022-08-07T01:17:31.546Z,2.80
2022-08-07T01:20:02.454Z,2.77
2022-08-07T01:22:33.281Z,2.30
2022-08-07T01:25:40.257Z,2.80
2022-08-07T01:28:07.280Z,3.03
2022-08-07T01:30:39.520Z,2.20
2022-08-07T01:33:09.971Z,2.70
2022-08-07T01:35:53.220Z,2.93
2022-08-07T01:42:37.993Z,2.80
2022-08-07T01:44:54.807Z,2.67
2022-08-07T01:48:18.115Z,3.00
2022-08-07T01:50:12.803Z,3.53
2022-08-07T01:52:49.630Z,2.83
2022-08-07T01:58:29.343Z,2.40
2022-08-07T02:01:09.682Z,2.63
2022-08-07T02:03:50.987Z,2.70
2022-08-07T02:06:31.824Z,2.40
2022-08-07T02:09:05.576Z,2.50
2022-08-07T02:12:02.624Z,2.70
2022-08-07T02:14:41.116Z,2.90
2022-08-07T02:17:27.535Z,2.60
2022-08-07T02:20:07.359Z,2.77
2022-08-07T02:22:45.098Z,3.10
2022-08-07T02:25:17.446Z,2.97
2022-08-07T02:27:55.892Z,2.60
2022-08-07T02:30:25.110Z,2.97
2022-08-07T02:33:03.710Z,2.47
2022-08-07T02:36:30.487Z,2.80
2022-08-07T02:38:31.643Z,2.47
2022-08-07T02:41:01.419Z,2.33
2022-08-07T02:43:33.543Z,2.50
2022-08-07T02:46:03.817Z,3.00
2022-08-07T02:48:34.500Z,2.40
2022-08-07T02:51:29.235Z,2.63
2022-08-07T02:53:56.677Z,3.10
2022-08-07T02:56:25.341Z,2.60
2022-08-07T02:58:55.619Z,2.57
2022-08-07T03:01:35.096Z,2.90
2022-08-07T03:04:07.067Z,2.60
2022-08-07T03:06:40.491Z,2.80
2022-08-07T03:09:11.251Z,2.83
2022-08-07T03:11:52.399Z,2.90
2022-08-07T03:14:27.921Z,2.40
2022-08-07T03:16:57.195Z,2.70
2022-08-07T03:19:24.857Z,2.50
2022-08-07T03:21:57.679Z,2.90
2022-08-07T03:24:27.756Z,2.97
2022-08-07T03:27:00.938Z,3.40
2022-08-07T03:29:46.171Z,3.23
2022-08-07T03:32:21.759Z,3.10
2022-08-07T03:35:01.116Z,2.77
2022-08-07T03:37:46.264Z,3.00
2022-08-07T03:40:23.843Z,3.23
2022-08-07T03:43:00.659Z,2.90
2022-08-07T03:45:30.755Z,2.90
2022-08-07T03:48:03.871Z,2.90
2022-08-07T03:50:37.832Z,2.90
2022-08-07T03:53:06.932Z,2.77
2022-08-07T03:55:52.946Z,2.90
2022-08-07T03:59:07.335Z,2.67
2022-08-07T04:01:11.850Z,3.03
2022-08-07T04:03:53.117Z,3.40
2022-08-07T04:06:36.311Z,2.70
2022-08-07T04:09:15.655Z,2.60
2022-08-07T04:12:26.430Z,2.43
2022-08-07T04:14:38.915Z,2.40
2022-08-07T04:17:20.307Z,2.70
2022-08-07T04:19:54.034Z,2.80
2022-08-07T04:22:28.529Z,2.40
2022-08-07T04:27:44.315Z,2.63
2022-08-07T04:30:21.277Z,2.40
2022-08-07T04:33:08.003Z,3.00
2022-08-07T04:35:40.334Z,2.93
2022-08-07T04:38:13.462Z,2.77
2022-08-07T04:40:52.607Z,2.20
2022-08-07T04:44:12.443Z,2.60
2022-08-07T04:46:25.998Z,2.63
2022-08-07T04:49:14.880Z,2.93
2022-08-07T04:51:54.328Z,2.90
2022-08-07T04:54:29.925Z,2.43
2022-08-07T04:58:12.790Z,3.00
2022-08-07T05:00:09.486Z,2.70
2022-08-07T05:02:44.400Z,2.30
2022-08-07T05:05:53.497Z,2.50
2022-08-07T05:08:12.212Z,2.87
2022-08-07T05:10:42.423Z,2.50
2022-08-07T05:14:55.290Z,2.87
2022-08-07T05:16:05.501Z,2.50
2022-08-07T05:18:34.840Z,2.47
2022-08-07T05:21:03.883Z,2.57
2022-08-07T05:23:36.741Z,2.80
2022-08-07T05:26:12.975Z,3.20
2022-08-07T05:28:48.529Z,3.20
2022-08-07T05:31:23.027Z,3.00
2022-08-07T05:34:04.755Z,3.37
2022-08-07T05:36:39.229Z,2.80
2022-08-07T05:40:05.574Z,2.90
2022-08-07T05:42:34.315Z,3.50
2022-08-07T05:45:25.734Z,3.83
2022-08-07T05:48:02.678Z,3.20
2022-08-07T05:50:39.526Z,3.93
2022-08-07T05:54:09.385Z,3.13
2022-08-07T05:56:03.212Z,3.63
2022-08-07T05:58:37.628Z,3.80
2022-08-07T06:01:10.724Z,3.40
2022-08-07T06:03:53.926Z,3.50
2022-08-07T06:06:29.772Z,3.60
2022-08-07T06:09:04.667Z,3.97
2022-08-07T06:11:36.544Z,3.03
2022-08-07T06:14:12.999Z,3.70
2022-08-07T06:16:55.861Z,3.30
2022-08-07T06:19:52.143Z,3.77
2022-08-07T06:22:27.124Z,3.40
2022-08-07T06:25:04.055Z,2.80
2022-08-07T06:27:59.819Z,3.60
2022-08-07T06:30:32.248Z,3.67
2022-08-07T06:33:10.041Z,3.63
2022-08-07T06:35:48.103Z,4.20
2022-08-07T06:38:35.022Z,3.90
2022-08-07T06:41:06.914Z,3.77
2022-08-07T06:43:39.822Z,4.07
2022-08-07T06:46:14.948Z,3.63
2022-08-07T06:48:48.303Z,2.90
2022-08-07T06:51:33.420Z,3.63
2022-08-07T06:55:28.351Z,3.17
2022-08-07T06:56:55.108Z,3.50
2022-08-07T07:00:11.977Z,3.47
2022-08-07T07:02:54.444Z,3.30
2022-08-07T07:05:08.722Z,3.47
2022-08-07T07:07:59.314Z,3.37
2022-08-07T07:10:28.494Z,2.07
2022-08-07T07:12:58.479Z,2.00
2022-08-07T07:15:32.696Z,2.10
2022-08-07T07:18:05.555Z,1.70
2022-08-07T07:20:51.722Z,1.90
2022-08-07T07:24:08.079Z,2.20
2022-08-07T07:26:33.964Z,1.90
2022-08-07T07:29:28.522Z,1.70
2022-08-07T07:31:48.464Z,1.63
2022-08-07T07:34:17.271Z,2.07
2022-08-07T07:36:47.908Z,1.70
2022-08-07T07:42:13.904Z,2.03
2022-08-07T07:44:49.377Z,2.17
2022-08-07T07:47:22.995Z,1.90
2022-08-07T07:50:32.746Z,1.57
2022-08-07T07:52:40.009Z,2.00
2022-08-07T07:59:01.965Z,2.40
2022-08-07T08:02:02.212Z,2.87
2022-08-07T08:04:19.483Z,1.83
2022-08-07T08:06:53.461Z,2.47
2022-08-07T08:09:22.796Z,2.20
2022-08-07T08:12:01.913Z,2.17
2022-08-07T08:14:30.799Z,2.00
2022-08-07T08:17:55.801Z,1.80
2022-08-07T08:20:17.116Z,2.57
2022-08-07T08:22:36.860Z,2.03
2022-08-07T08:25:41.725Z,2.00
2022-08-07T08:28:12.210Z,1.80
2022-08-07T08:30:51.496Z,1.87
2022-08-07T08:33:23.785Z,1.80
2022-08-07T08:35:53.386Z,1.77
2022-08-07T08:38:29.524Z,2.30
2022-08-07T08:40:58.596Z,2.00
2022-08-07T08:43:55.773Z,1.90
2022-08-07T08:46:29.794Z,1.70
2022-08-07T08:49:00.855Z,1.90
2022-08-07T08:52:13.100Z,1.53
2022-08-07T08:54:24.163Z,2.20
2022-08-07T08:56:53.388Z,1.70
2022-08-07T08:59:28.289Z,1.77
2022-08-07T09:02:01.210Z,1.70
2022-08-07T09:04:36.688Z,2.07
2022-08-07T09:07:11.308Z,1.60
2022-08-07T09:09:43.399Z,1.88
2022-08-07T09:12:30.545Z,1.58
2022-08-07T09:16:23.679Z,1.83
2022-08-07T09:18:11.445Z,2.20
2022-08-07T09:20:57.877Z,1.60
2022-08-07T09:24:32.304Z,1.50
2022-08-07T09:26:23.268Z,1.23
2022-08-07T09:29:24.446Z,1.60
2022-08-07T09:31:48.549Z,1.42
2022-08-07T09:34:18.844Z,1.98
2022-08-07T09:36:52.295Z,1.80
2022-08-07T09:39:55.594Z,2.13
2022-08-07T09:42:23.126Z,1.73
2022-08-07T09:47:26.311Z,2.10
2022-08-07T09:47:59.148Z,1.80
2022-08-07T09:50:33.601Z,1.40
2022-08-07T09:53:12.719Z,1.73
2022-08-07T09:56:04.284Z,1.52
2022-08-07T09:58:51.090Z,1.23
2022-08-07T10:01:53.078Z,1.73
2022-08-07T10:04:32.646Z,1.75
2022-08-07T10:07:06.008Z,1.25
2022-08-07T10:10:00.587Z,1.98
2022-08-07T10:12:53.321Z,1.60
2022-08-07T10:15:50.789Z,2.03
2022-08-07T10:18:26.517Z,1.17
2022-08-07T10:21:02.095Z,1.63
2022-08-07T10:24:06.112Z,1.70
2022-08-07T10:26:31.126Z,1.33
2022-08-07T10:29:08.395Z,1.45
2022-08-07T10:31:59.909Z,1.75
2022-08-07T10:34:34.535Z,1.50
2022-08-07T10:37:12.370Z,1.90
2022-08-07T10:39:57.490Z,1.20
2022-08-07T10:42:37.097Z,1.92
2022-08-07T10:45:12.403Z,1.38
2022-08-07T10:47:53.187Z,1.52
2022-08-07T10:50:25.964Z,1.60
2022-08-07T10:53:08.006Z,1.60
2022-08-07T10:55:42.474Z,1.50
2022-08-07T10:58:25.045Z,1.30
2022-08-07T11:01:15.118Z,1.50
2022-08-07T11:03:55.212Z,1.33
2022-08-07T11:06:29.863Z,1.95
2022-08-07T11:09:00.696Z,1.90
2022-08-07T11:11:35.952Z,1.60
2022-08-07T11:14:44.215Z,1.80
2022-08-07T11:17:02.208Z,1.45
2022-08-07T11:19:37.159Z,1.83
2022-08-07T11:22:19.479Z,1.88
2022-08-07T11:25:00.629Z,1.45
2022-08-07T11:28:02.925Z,1.30
2022-08-07T11:30:41.462Z,1.85
2022-08-07T11:33:15.855Z,2.70
2022-08-07T11:36:00.272Z,2.20
2022-08-07T11:38:40.050Z,2.00
2022-08-07T11:41:10.667Z,1.70
2022-08-07T11:44:11.180Z,1.77
2022-08-07T11:46:48.744Z,1.88
2022-08-07T11:49:51.444Z,1.90
2022-08-07T11:52:29.284Z,2.28
2022-08-07T11:55:13.183Z,1.52
2022-08-07T11:58:00.043Z,2.63
2022-08-07T12:00:33.478Z,1.52
2022-08-07T12:03:44.935Z,2.00
2022-08-07T12:06:37.936Z,1.67
2022-08-07T12:09:16.131Z,1.85
2022-08-07T12:12:10.324Z,1.83
2022-08-07T12:14:39.453Z,1.48
2022-08-07T12:17:19.996Z,2.33
2022-08-07T12:19:56.477Z,1.58
2022-08-07T12:22:56.034Z,1.45
2022-08-07T12:26:05.351Z,2.03
2022-08-07T12:28:18.404Z,1.75
2022-08-07T12:31:00.622Z,1.48
2022-08-07T12:33:46.285Z,1.90
2022-08-07T12:36:17.909Z,2.00
2022-08-07T12:39:02.281Z,1.85
2022-08-07T12:41:49.788Z,1.42
2022-08-07T12:44:19.035Z,1.83
2022-08-07T12:46:55.938Z,1.70
2022-08-07T12:49:44.210Z,1.58
2022-08-07T12:52:19.217Z,1.30
2022-08-07T12:54:54.750Z,2.03
2022-08-07T12:57:26.110Z,1.75
2022-08-07T13:00:07.128Z,1.50
2022-08-07T13:02:57.423Z,1.70
2022-08-07T13:06:05.059Z,1.75
2022-08-07T13:08:23.566Z,1.88
2022-08-07T13:11:24.683Z,2.22
2022-08-07T13:13:58.797Z,2.03
2022-08-07T13:16:30.169Z,1.98
2022-08-07T13:19:01.534Z,1.65
2022-08-07T13:21:50.406Z,1.45
2022-08-07T13:24:25.625Z,1.33
2022-08-07T13:26:58.331Z,1.60
2022-08-07T13:29:35.068Z,1.27
2022-08-07T13:32:31.684Z,1.95
2022-08-07T13:34:54.767Z,1.40
2022-08-07T13:37:28.428Z,1.48
2022-08-07T13:40:36.275Z,2.20
2022-08-07T13:47:09.858Z,1.70
2022-08-07T13:50:32.957Z,1.42
2022-08-07T13:52:40.737Z,1.65
2022-08-07T13:55:11.177Z,1.80
2022-08-07T13:57:59.144Z,1.85
2022-08-07T14:00:35.213Z,1.98
2022-08-07T14:03:30.033Z,1.30
2022-08-07T14:06:07.738Z,2.20
2022-08-07T14:08:37.384Z,1.70
2022-08-07T14:11:15.226Z,1.90
2022-08-07T14:13:48.074Z,1.52
2022-08-07T14:16:16.349Z,1.50
2022-08-07T14:18:49.996Z,1.67
2022-08-07T14:22:41.247Z,1.52
2022-08-07T14:24:20.073Z,1.90
2022-08-07T14:26:51.392Z,3.95
2022-08-07T14:30:07.894Z,2.05
2022-08-07T14:32:25.018Z,2.28
2022-08-07T14:34:52.816Z,1.42
2022-08-07T14:37:32.953Z,2.10
2022-08-07T14:40:16.671Z,2.03
2022-08-07T14:43:00.849Z,1.95
2022-08-07T14:48:33.260Z,1.77
2022-08-07T14:51:02.528Z,2.50
2022-08-07T14:54:05.472Z,2.47
2022-08-07T14:59:13.872Z,2.20
2022-08-07T15:02:32.024Z,2.15
2022-08-07T15:05:03.078Z,2.63
2022-08-07T15:07:51.114Z,2.00
2022-08-07T15:10:20.032Z,2.00
2022-08-07T15:12:58.128Z,2.15
2022-08-07T15:15:30.283Z,2.22
2022-08-07T15:18:02.499Z,2.13
2022-08-07T15:23:53.554Z,2.25
2022-08-07T15:26:21.310Z,1.70
2022-08-07T15:28:55.493Z,2.67
2022-08-07T15:31:58.115Z,1.83
2022-08-07T15:34:26.101Z,2.22
2022-08-07T15:37:04.711Z,2.15
2022-08-07T15:39:56.321Z,2.22
2022-08-07T15:42:45.627Z,2.35
2022-08-07T15:48:04.502Z,2.17
2022-08-07T15:51:07.836Z,3.42
2022-08-07T15:53:51.928Z,1.70
2022-08-07T15:56:15.541Z,2.40
2022-08-07T15:58:49.906Z,1.92
2022-08-07T16:01:21.992Z,2.33
2022-08-07T16:03:57.375Z,2.15
2022-08-07T16:06:28.822Z,2.40
2022-08-07T16:08:59.990Z,1.80
2022-08-07T16:11:33.123Z,2.35
2022-08-07T16:14:19.174Z,2.30
2022-08-07T16:16:56.788Z,2.75
2022-08-07T16:19:42.424Z,1.63
2022-08-07T16:22:54.616Z,1.88
2022-08-07T16:25:54.269Z,2.17
2022-08-07T16:29:18.686Z,1.92
2022-08-07T16:31:50.366Z,1.77
2022-08-07T16:34:10.429Z,2.00
2022-08-07T16:37:02.340Z,1.98
2022-08-07T16:39:48.989Z,3.20
2022-08-07T16:42:32.097Z,2.30
2022-08-07T16:45:14.956Z,1.50
2022-08-07T16:48:03.595Z,2.00
2022-08-07T16:50:52.736Z,2.22
2022-08-07T16:54:03.005Z,2.70
2022-08-07T16:56:25.868Z,2.22
2022-08-07T16:59:14.552Z,1.75
2022-08-07T17:01:49.345Z,2.30
2022-08-07T17:04:27.758Z,2.03
2022-08-07T17:07:04.248Z,2.25
2022-08-07T17:10:08.441Z,2.38
2022-08-07T17:12:34.330Z,2.00
2022-08-07T17:15:05.408Z,2.70
2022-08-07T17:17:46.093Z,2.80
2022-08-07T17:20:21.442Z,2.70
2022-08-07T17:22:55.012Z,1.88
2022-08-07T17:25:51.208Z,2.42
2022-08-07T17:28:24.579Z,2.35
2022-08-07T17:31:16.387Z,2.17
2022-08-07T17:34:32.554Z,1.48
2022-08-07T17:36:57.883Z,2.22
2022-08-07T17:39:58.236Z,2.90
2022-08-07T17:42:23.860Z,2.25
2022-08-07T17:44:56.228Z,2.30
2022-08-07T17:47:38.290Z,1.90
2022-08-07T17:50:18.841Z,2.00
2022-08-07T17:52:50.453Z,2.42
2022-08-07T17:56:01.027Z,1.92
2022-08-07T17:58:09.135Z,2.45
2022-08-07T18:00:48.657Z,2.10
2022-08-07T18:03:21.589Z,2.28
2022-08-07T18:06:03.447Z,2.35
2022-08-07T18:09:01.134Z,1.70
2022-08-07T18:12:08.365Z,1.95
2022-08-07T18:14:23.624Z,2.00
2022-08-07T18:16:57.883Z,2.15
2022-08-07T18:21:07.391Z,2.00
2022-08-07T18:22:26.537Z,2.00
2022-08-07T18:24:56.513Z,2.38
2022-08-07T18:27:38.029Z,2.40
2022-08-07T18:30:31.502Z,2.08
2022-08-07T18:33:27.034Z,2.28
2022-08-07T18:36:01.835Z,2.00
2022-08-07T18:38:55.690Z,2.05
2022-08-07T18:41:44.751Z,1.77
2022-08-07T18:44:23.259Z,2.35
2022-08-07T18:47:00.003Z,2.00
2022-08-07T18:50:19.274Z,1.80
2022-08-07T18:52:53.043Z,1.80
2022-08-07T18:58:24.862Z,2.42
2022-08-07T19:01:05.038Z,2.08
2022-08-07T19:03:38.183Z,2.28
2022-08-07T19:06:09.889Z,2.38
2022-08-07T19:08:56.989Z,1.90
2022-08-07T19:18:12.562Z,2.80
2022-08-07T19:21:09.110Z,2.72
2022-08-07T19:23:58.611Z,2.35
2022-08-07T19:26:29.860Z,2.03
2022-08-07T19:30:57.503Z,2.47
2022-08-07T19:32:11.497Z,2.00
2022-08-07T19:34:40.384Z,2.20
2022-08-07T19:37:17.349Z,2.78
2022-08-07T19:39:57.949Z,2.20
2022-08-07T19:42:31.180Z,2.50
2022-08-07T19:45:00.730Z,2.72
2022-08-07T19:47:39.250Z,2.67
2022-08-07T19:50:40.998Z,2.90
2022-08-07T19:53:01.187Z,2.88
2022-08-07T19:55:57.283Z,2.50
2022-08-07T19:58:28.457Z,2.60
2022-08-07T20:00:57.530Z,2.35
2022-08-07T20:03:33.875Z,2.15
2022-08-07T20:06:05.246Z,2.40
2022-08-07T20:08:33.964Z,2.80
2022-08-07T20:11:03.777Z,2.10
2022-08-07T20:13:41.674Z,2.22
2022-08-07T20:16:15.903Z,2.47
2022-08-07T20:18:58.335Z,2.60
2022-08-07T20:21:29.174Z,2.45
2022-08-07T20:24:14.175Z,2.20
2022-08-07T20:26:49.911Z,2.78
2022-08-07T20:29:48.618Z,2.20
2022-08-07T20:32:11.283Z,2.45
2022-08-07T20:34:50.682Z,2.67
2022-08-07T20:37:23.892Z,2.40
2022-08-07T20:40:04.253Z,2.53
2022-08-07T20:42:32.857Z,2.20
2022-08-07T20:45:00.836Z,2.85
2022-08-07T20:47:56.350Z,2.40
2022-08-07T20:50:17.335Z,2.42
2022-08-07T20:52:51.144Z,2.08
2022-08-07T20:55:23.549Z,2.22
2022-08-07T20:57:59.956Z,2.03
2022-08-07T21:00:42.153Z,2.58
2022-08-07T21:03:25.772Z,2.35
2022-08-07T21:05:56.637Z,1.92
2022-08-07T21:08:37.100Z,2.30
2022-08-07T21:11:29.046Z,2.28
2022-08-07T21:14:48.227Z,2.50
2022-08-07T21:18:02.346Z,2.30
2022-08-07T21:20:18.868Z,1.88
2022-08-07T21:22:55.660Z,2.15
2022-08-07T21:25:28.947Z,1.90
2022-08-07T21:28:02.218Z,2.38
2022-08-07T21:30:33.505Z,3.00
2022-08-07T21:33:07.383Z,1.98
2022-08-07T21:36:05.977Z,2.10
2022-08-07T21:38:27.701Z,2.15
2022-08-07T21:41:00.120Z,2.33
2022-08-07T21:43:55.834Z,2.30
2022-08-07T21:46:31.827Z,2.60
2022-08-07T21:49:04.766Z,2.35
2022-08-07T21:51:51.354Z,2.53
2022-08-07T21:54:45.887Z,2.53
2022-08-07T21:57:54.618Z,2.20
2022-08-07T22:00:25.268Z,2.50
2022-08-07T22:02:59.692Z,2.50
2022-08-07T22:05:46.138Z,2.40
2022-08-07T22:08:18.556Z,2.40
2022-08-07T22:10:48.711Z,2.22
2022-08-07T22:13:16.429Z,2.45
2022-08-07T22:16:42.548Z,2.17
2022-08-07T22:18:37.902Z,2.40
2022-08-07T22:21:12.149Z,2.37
2022-08-07T22:23:45.018Z,2.38
2022-08-07T22:26:14.134Z,2.20
2022-08-07T22:28:48.267Z,2.08
2022-08-07T22:31:56.164Z,2.40
2022-08-07T22:34:16.173Z,2.25
2022-08-07T22:36:46.294Z,2.03
2022-08-07T22:39:16.130Z,2.17
2022-08-07T22:42:03.958Z,2.10
2022-08-07T22:44:38.847Z,2.20
2022-08-07T22:47:38.683Z,1.90
2022-08-07T22:50:29.157Z,1.83
2022-08-07T22:53:19.338Z,2.23
2022-08-07T22:56:08.593Z,1.97
2022-08-07T22:58:43.556Z,1.83
2022-08-07T23:01:49.834Z,1.57
2022-08-07T23:04:30.904Z,1.90
2022-08-07T23:07:28.433Z,1.60
2022-08-07T23:10:35.098Z,1.88
2022-08-07T23:13:00.264Z,1.70
2022-08-07T23:16:07.278Z,2.40
2022-08-07T23:18:32.171Z,1.87
2022-08-07T23:21:17.424Z,2.20
2022-08-07T23:24:11.422Z,1.75
2022-08-07T23:26:55.042Z,2.47
2022-08-07T23:29:43.494Z,2.00
2022-08-07T23:34:22.935Z,2.03
2022-08-07T23:35:19.908Z,2.13
2022-08-07T23:38:01.019Z,2.30
2022-08-07T23:40:35.103Z,2.33
2022-08-07T23:43:21.119Z,1.77
2022-08-07T23:46:03.728Z,2.00
2022-08-07T23:48:47.105Z,2.60
2022-08-07T23:53:01.378Z,2.00
2022-08-07T23:54:08.278Z,1.90
2022-08-07T23:56:53.844Z,1.97
